Time;durP1;ratioP1;P1;durP2;ratioP2;P2;SDS_P1;SDS_P2;PMS_P1;PMS_P2;Temp;Humidity;BMP_temperature;BMP_pressure;BME280_temperature;BME280_humidity;BME280_pressure;Samples;Min_cycle;Max_cycle;Signal;HPM_P1;HPM_P2
2022/08/25 00:01:19;;;;;;;3.97;2.10;;;26.40;64.80;;;;;;10984720;32;20014;-71
2022/08/25 00:07:21;;;;;;;5.28;2.17;;;26.40;64.90;;;;;;10984518;32;20027;-71
2022/08/25 00:13:23;;;;;;;2.90;2.03;;;26.30;65.00;;;;;;10984479;32;20015;-71
2022/08/25 00:19:29;;;;;;;2.47;2.10;;;26.20;65.30;;;;;;10984274;32;20014;-71
2022/08/25 00:25:31;;;;;;;4.60;2.47;;;26.20;65.40;;;;;;10970652;32;20033;-71
2022/08/25 00:31:33;;;;;;;2.35;1.92;;;26.20;65.60;;;;;;10983759;32;20061;-71
2022/08/25 00:37:36;;;;;;;3.75;2.20;;;26.10;65.80;;;;;;10979128;32;20045;-71
2022/08/25 00:43:41;;;;;;;4.57;2.53;;;26.00;66.10;;;;;;10983258;32;20037;-71
2022/08/25 00:49:56;;;;;;;4.25;2.40;;;25.90;66.30;;;;;;10978738;32;20049;-71
2022/08/25 00:55:58;;;;;;;3.97;2.50;;;25.90;66.30;;;;;;10982626;32;20034;-71
2022/08/25 01:02:00;;;;;;;4.35;2.72;;;25.90;66.20;;;;;;10982617;32;20045;-71
2022/08/25 01:08:05;;;;;;;2.58;1.58;;;25.80;66.50;;;;;;10982330;32;20048;-71
2022/08/25 01:14:09;;;;;;;3.08;2.05;;;25.80;66.70;;;;;;10982213;32;20019;-71
2022/08/25 01:20:13;;;;;;;3.62;2.40;;;25.80;66.90;;;;;;10982038;32;20023;-71
2022/08/25 01:26:21;;;;;;;4.62;2.50;;;25.70;66.80;;;;;;10981789;32;20014;-71
2022/08/25 01:32:24;;;;;;;5.70;3.15;;;25.80;67.00;;;;;;10981445;32;20386;-71
2022/08/25 01:38:26;;;;;;;2.50;2.00;;;25.70;67.00;;;;;;10967814;32;20015;-71
2022/08/25 01:44:29;;;;;;;4.00;2.30;;;25.70;67.20;;;;;;10967734;32;20391;-71
2022/08/25 01:50:31;;;;;;;3.42;2.12;;;25.50;67.40;;;;;;10980828;32;20022;-71
2022/08/25 01:57:07;;;;;;;3.80;2.25;;;25.50;67.50;;;;;;10980196;32;20038;-71
2022/08/25 02:03:10;;;;;;;4.03;2.00;;;25.50;67.80;;;;;;10980715;32;20382;-71
2022/08/25 02:09:15;;;;;;;7.10;3.17;;;25.50;67.90;;;;;;10980276;32;20049;-71
2022/08/25 02:15:17;;;;;;;10.10;3.05;;;25.40;67.90;;;;;;10980036;32;20048;-71
2022/08/25 02:21:19;;;;;;;3.95;2.75;;;25.30;68.10;;;;;;10966568;32;20084;-71
2022/08/25 02:27:23;;;;;;;5.10;3.03;;;25.30;68.40;;;;;;10979787;32;20015;-71
2022/08/25 02:33:25;;;;;;;4.80;2.97;;;25.30;68.30;;;;;;10979805;32;20019;-71
2022/08/25 02:39:27;;;;;;;2.22;1.65;;;25.30;68.40;;;;;;10966188;32;20387;-71
2022/08/25 02:45:29;;;;;;;5.05;2.42;;;25.30;68.90;;;;;;10979600;32;20054;-71
2022/08/25 02:51:32;;;;;;;2.67;2.00;;;25.30;69.20;;;;;;10979475;32;20041;-71
2022/08/25 02:57:34;;;;;;;3.53;2.40;;;25.30;69.10;;;;;;10979187;32;20346;-71
2022/08/25 03:03:39;;;;;;;3.75;2.45;;;25.30;69.50;;;;;;10979325;32;20041;-71
2022/08/25 03:09:41;;;;;;;5.03;2.78;;;25.30;70.00;;;;;;10982675;32;20338;-71
2022/08/25 03:15:44;;;;;;;2.95;2.15;;;25.30;70.10;;;;;;10973056;32;20045;-71
2022/08/25 03:21:47;;;;;;;5.82;2.62;;;25.20;70.10;;;;;;10972960;32;20331;-71
2022/08/25 03:27:50;;;;;;;2.97;2.08;;;25.20;70.30;;;;;;10981982;32;20014;-71
2022/08/25 03:33:53;;;;;;;5.37;2.72;;;25.20;69.80;;;;;;10985799;32;20014;-71
2022/08/25 03:39:55;;;;;;;4.75;2.33;;;25.20;69.60;;;;;;10985798;32;20027;-71
2022/08/25 03:45:57;;;;;;;2.47;1.85;;;25.20;69.80;;;;;;10985521;32;20019;-71
2022/08/25 03:52:00;;;;;;;5.43;3.62;;;25.20;69.70;;;;;;10985160;32;20076;-71
2022/08/25 03:58:02;;;;;;;2.78;2.40;;;25.20;69.50;;;;;;10971566;32;20048;-71
2022/08/25 04:04:06;;;;;;;3.25;2.33;;;25.10;69.70;;;;;;10971326;32;20435;-71
2022/08/25 04:10:11;;;;;;;3.67;2.42;;;25.00;69.70;;;;;;10984583;32;20046;-71
2022/08/25 04:16:15;;;;;;;4.50;2.75;;;25.00;69.70;;;;;;10984402;32;20049;-71
2022/08/25 04:22:18;;;;;;;3.67;2.22;;;24.90;69.70;;;;;;10965927;32;20021;-71
2022/08/25 04:28:21;;;;;;;4.03;2.80;;;24.90;69.70;;;;;;11004330;27;20091;-70
2022/08/25 04:34:25;;;;;;;3.67;2.20;;;24.80;69.90;;;;;;11046480;32;20022;-71
2022/08/25 04:40:27;;;;;;;14.98;3.17;;;24.80;70.00;;;;;;11060072;32;20014;-71
2022/08/25 04:46:32;;;;;;;4.43;2.78;;;24.70;70.10;;;;;;11059876;32;20022;-71
2022/08/25 04:52:36;;;;;;;3.83;2.37;;;24.70;70.10;;;;;;11045972;32;20292;-71
2022/08/25 04:58:39;;;;;;;6.22;2.37;;;24.70;70.10;;;;;;11059373;32;20026;-71
2022/08/25 05:04:41;;;;;;;3.35;2.60;;;24.70;70.00;;;;;;11059185;32;20018;-71
2022/08/25 05:10:43;;;;;;;3.95;2.83;;;24.70;69.90;;;;;;11058751;32;20041;-71
2022/08/25 05:16:45;;;;;;;3.12;2.50;;;24.70;69.90;;;;;;11058520;32;20026;-71
2022/08/25 05:22:57;;;;;;;6.03;2.92;;;24.70;70.00;;;;;;11044929;32;20034;-71
2022/08/25 05:29:09;;;;;;;5.10;3.60;;;24.60;69.90;;;;;;11044418;32;20017;-71
2022/08/25 05:35:19;;;;;;;5.95;3.33;;;24.60;70.00;;;;;;11057921;32;20064;-71
2022/08/25 05:41:26;;;;;;;4.03;2.70;;;24.50;70.00;;;;;;11057701;32;20049;-71
2022/08/25 05:47:28;;;;;;;5.00;3.70;;;24.50;69.90;;;;;;11057142;32;20307;-71
2022/08/25 05:53:30;;;;;;;4.78;3.12;;;24.60;69.70;;;;;;11057498;32;20052;-71
2022/08/25 05:59:33;;;;;;;3.45;2.33;;;24.60;69.60;;;;;;11043479;32;20033;-71
2022/08/25 06:05:35;;;;;;;7.53;3.70;;;24.70;69.40;;;;;;11052732;32;20325;-71
2022/08/25 06:11:39;;;;;;;2.83;2.12;;;24.70;69.30;;;;;;11056901;32;20049;-71
2022/08/25 06:17:42;;;;;;;5.82;1.65;;;24.80;68.80;;;;;;11056512;32;20029;-71
2022/08/25 06:23:44;;;;;;;3.17;1.85;;;24.80;68.80;;;;;;11056388;32;20025;-71
2022/08/25 06:29:46;;;;;;;3.30;2.37;;;24.90;68.70;;;;;;11042565;32;20318;-71
2022/08/25 06:35:53;;;;;;;5.25;2.22;;;25.10;68.40;;;;;;11056151;32;20064;-71
2022/08/25 06:41:56;;;;;;;3.28;1.98;;;25.20;68.10;;;;;;11042537;32;20040;-71
2022/08/25 06:48:00;;;;;;;3.90;2.10;;;25.30;67.60;;;;;;11055395;32;20050;-71
2022/08/25 06:54:05;;;;;;;4.93;2.55;;;25.40;67.40;;;;;;11050578;32;20040;-71
2022/08/25 07:00:10;;;;;;;2.50;1.67;;;25.60;67.10;;;;;;11054947;32;20026;-71
2022/08/25 07:06:12;;;;;;;2.55;2.20;;;25.80;66.80;;;;;;11068499;32;20398;-71
2022/08/25 07:12:14;;;;;;;2.60;2.10;;;25.90;66.60;;;;;;11068388;32;20175;-71
2022/08/25 07:18:15;;;;;;;3.62;2.22;;;26.00;66.40;;;;;;11051014;32;20022;-71
2022/08/25 07:24:18;;;;;;;3.45;2.05;;;26.20;66.20;;;;;;11054535;32;20334;-71
2022/08/25 07:30:22;;;;;;;3.25;2.17;;;26.30;65.90;;;;;;11067994;32;20049;-71
2022/08/25 07:36:24;;;;;;;5.22;2.00;;;26.40;65.70;;;;;;11067960;32;20014;-71
2022/08/25 07:42:26;;;;;;;2.47;1.45;;;26.50;65.50;;;;;;11067450;32;20021;-71
2022/08/25 07:48:29;;;;;;;2.67;1.58;;;26.60;65.30;;;;;;11053427;32;20034;-71
2022/08/25 07:54:33;;;;;;;3.62;2.20;;;26.80;64.90;;;;;;11027115;32;20398;-71
2022/08/25 08:00:36;;;;;;;3.08;2.15;;;26.90;64.50;;;;;;11023169;32;20049;-71
2022/08/25 08:06:39;;;;;;;4.35;2.53;;;27.00;64.20;;;;;;11022827;32;20048;-71
2022/08/25 08:12:42;;;;;;;8.95;2.97;;;27.10;63.70;;;;;;11022520;32;20322;-71
2022/08/25 08:18:45;;;;;;;6.05;2.17;;;27.20;63.50;;;;;;11008376;32;20103;-71
2022/08/25 08:24:48;;;;;;;3.42;1.60;;;27.30;63.10;;;;;;11022238;32;20041;-71
2022/08/25 08:30:50;;;;;;;3.83;2.65;;;27.30;62.90;;;;;;11008576;32;20010;-71
2022/08/25 08:37:21;;;;;;;5.37;2.83;;;27.40;62.40;;;;;;11021765;32;20022;-71
2022/08/25 08:43:40;;;;;;;5.22;3.28;;;27.50;62.20;;;;;;11021629;32;20383;-71
2022/08/25 08:50:03;;;;;;;4.82;2.50;;;27.60;61.90;;;;;;11021393;32;20389;-71
2022/08/25 08:56:10;;;;;;;3.03;2.10;;;27.70;61.70;;;;;;11020966;32;20029;-71
2022/08/25 09:02:22;;;;;;;5.03;3.08;;;27.80;61.40;;;;;;11007268;32;20338;-71
2022/08/25 09:08:24;;;;;;;4.00;2.42;;;27.90;61.30;;;;;;11007074;32;20058;-71
2022/08/25 09:14:38;;;;;;;4.53;3.03;;;28.00;61.20;;;;;;11006822;32;20045;-70
2022/08/25 09:21:20;;;;;;;4.20;2.60;;;28.10;60.80;;;;;;11020271;32;20068;-71
2022/08/25 09:27:53;;;;;;;4.32;2.80;;;28.20;60.30;;;;;;11019885;32;20026;-71
2022/08/25 09:34:23;;;;;;;3.33;1.90;;;28.30;59.80;;;;;;11019837;32;20392;-71
2022/08/25 09:40:30;;;;;;;3.47;2.10;;;28.40;59.60;;;;;;11019581;32;20088;-71
2022/08/25 09:46:32;;;;;;;3.10;1.97;;;28.60;59.20;;;;;;11017705;32;20014;-71
2022/08/25 09:52:39;;;;;;;6.22;3.10;;;28.70;58.90;;;;;;11019037;32;20049;-71
2022/08/25 09:58:41;;;;;;;3.17;1.98;;;28.80;57.90;;;;;;11018826;32;20092;-71
2022/08/25 10:04:44;;;;;;;3.95;2.40;;;28.80;57.50;;;;;;11017905;32;20030;-71
2022/08/25 10:10:53;;;;;;;3.58;2.03;;;28.90;57.30;;;;;;11018574;32;20354;-71
2022/08/25 10:17:15;;;;;;;4.90;2.92;;;29.00;57.30;;;;;;11004271;32;20427;-71
2022/08/25 10:23:18;;;;;;;4.87;2.92;;;29.30;57.10;;;;;;11018215;32;20045;-71
2022/08/25 10:29:53;;;;;;;4.55;2.15;;;29.40;56.80;;;;;;11018142;32;20023;-71
2022/08/25 10:36:21;;;;;;;5.82;2.58;;;29.50;56.60;;;;;;11017857;32;20037;-71
2022/08/25 10:42:42;;;;;;;3.62;2.35;;;29.70;56.40;;;;;;11004587;32;20022;-71
2022/08/25 10:48:56;;;;;;;3.37;2.20;;;29.90;56.00;;;;;;11017670;32;20023;-71
2022/08/25 10:55:09;;;;;;;9.10;2.33;;;30.00;55.20;;;;;;11017617;32;20019;-72
2022/08/25 11:01:30;;;;;;;2.40;1.70;;;30.30;54.60;;;;;;11017443;32;20044;-71
2022/08/25 11:07:37;;;;;;;4.97;3.05;;;30.60;54.20;;;;;;11017388;32;20007;-72
2022/08/25 11:13:49;;;;;;;6.00;3.42;;;30.80;53.40;;;;;;11003559;32;20034;-68
2022/08/25 11:19:56;;;;;;;4.15;3.05;;;30.90;53.40;;;;;;11017200;32;20058;-69
2022/08/25 11:26:04;;;;;;;4.30;2.62;;;31.10;52.90;;;;;;11017111;32;20026;-69
2022/08/25 11:32:06;;;;;;;3.97;2.42;;;31.40;52.60;;;;;;10585618;32;11962712;-69
2022/08/25 11:38:15;;;;;;;6.78;2.97;;;31.60;52.40;;;;;;10939975;32;20035;-69
2022/08/25 11:44:48;;;;;;;5.72;2.53;;;31.80;51.80;;;;;;10941165;32;20031;-68
2022/08/25 11:51:27;;;;;;;4.62;2.75;;;31.80;51.60;;;;;;10944047;32;20027;-69
2022/08/25 11:57:29;;;;;;;2.95;2.22;;;31.80;50.80;;;;;;11004851;32;20049;-69
2022/08/25 12:03:31;;;;;;;3.30;2.53;;;32.00;50.60;;;;;;11023184;32;20053;-69
2022/08/25 12:09:59;;;;;;;3.83;2.67;;;32.20;50.20;;;;;;11021871;32;20034;-70
2022/08/25 12:16:01;;;;;;;4.60;2.75;;;32.20;49.90;;;;;;11022571;32;20053;-69
2022/08/25 12:22:04;;;;;;;6.68;3.17;;;32.20;49.80;;;;;;11022514;32;20346;-71
2022/08/25 12:28:38;;;;;;;2.40;1.77;;;32.30;49.60;;;;;;11026291;26;20402;-71
2022/08/25 12:34:52;;;;;;;5.47;2.58;;;32.20;49.30;;;;;;11022019;32;20064;-71
2022/08/25 12:41:07;;;;;;;3.97;2.15;;;32.10;49.20;;;;;;11021571;32;20386;-71
2022/08/25 12:47:18;;;;;;;3.08;2.17;;;32.30;49.20;;;;;;11021589;32;20037;-71
2022/08/25 12:53:39;;;;;;;4.20;2.47;;;32.20;48.90;;;;;;11000636;32;20346;-71
2022/08/25 12:59:48;;;;;;;4.50;2.47;;;32.00;48.90;;;;;;10982250;32;20425;-71
2022/08/25 13:06:28;;;;;;;5.47;3.00;;;31.90;49.10;;;;;;10982840;32;20045;-71
2022/08/25 13:12:38;;;;;;;4.95;2.37;;;31.90;48.90;;;;;;10982477;32;20395;-71
2022/08/25 13:18:41;;;;;;;4.07;2.60;;;31.90;48.90;;;;;;10968619;32;20056;-71
2022/08/25 13:24:48;;;;;;;11.18;3.53;;;31.80;48.90;;;;;;10982036;32;20019;-72
2022/08/25 13:30:57;;;;;;;;;;;31.80;49.00;;;;;;10967738;32;20014;-71
2022/08/25 13:37:31;;;;;;;4.22;2.53;;;31.50;49.50;;;;;;10981589;32;20223;-71
2022/08/25 13:43:41;;;;;;;3.72;2.67;;;31.30;49.70;;;;;;10902920;32;20024;-71
2022/08/25 13:49:46;;;;;;;3.78;2.62;;;31.30;50.20;;;;;;10901346;32;20053;-71
2022/08/25 13:55:56;;;;;;;6.45;2.22;;;31.50;50.10;;;;;;10900714;32;20053;-72
2022/08/25 14:01:59;;;;;;;3.53;2.70;;;31.60;50.10;;;;;;10901146;32;20027;-72
2022/08/25 14:08:03;;;;;;;5.53;3.33;;;31.60;50.10;;;;;;10898067;32;20418;-71
2022/08/25 14:14:07;;;;;;;3.05;1.98;;;31.60;50.20;;;;;;10900778;32;20023;-71
2022/08/25 14:20:36;;;;;;;4.03;3.10;;;31.40;50.50;;;;;;10955620;32;20045;-71
2022/08/25 14:26:39;;;;;;;4.37;2.40;;;31.40;50.30;;;;;;10961698;32;20053;-72
2022/08/25 14:32:41;;;;;;;2.37;1.60;;;31.70;50.10;;;;;;10979883;32;20046;-71
2022/08/25 14:38:43;;;;;;;4.32;2.53;;;31.90;49.90;;;;;;10979695;32;20305;-72
2022/08/25 14:44:45;;;;;;;4.97;3.25;;;32.10;49.60;;;;;;10966214;32;20284;-73
2022/08/25 14:50:48;;;;;;;4.43;2.80;;;32.30;49.30;;;;;;10979748;32;20363;-71
2022/08/25 14:57:03;;;;;;;3.95;2.45;;;32.20;48.70;;;;;;10979378;32;20018;-72
2022/08/25 15:03:06;;;;;;;6.25;4.07;;;32.00;49.00;;;;;;10961942;32;20053;-71
2022/08/25 15:09:11;;;;;;;5.18;2.80;;;31.90;48.90;;;;;;10987070;32;20318;-71
2022/08/25 15:15:13;;;;;;;3.58;2.65;;;32.10;48.80;;;;;;10972638;32;20057;-72
2022/08/25 15:21:34;;;;;;;4.93;3.30;;;32.30;48.50;;;;;;10986654;32;20368;-72
2022/08/25 15:27:36;;;;;;;4.62;3.33;;;32.60;47.90;;;;;;10986775;32;20052;-72
2022/08/25 15:33:39;;;;;;;3.00;2.25;;;32.50;47.60;;;;;;10986721;32;20041;-71
2022/08/25 15:39:47;;;;;;;5.47;2.50;;;32.50;47.50;;;;;;10987399;32;20081;-71
2022/08/25 15:45:50;;;;;;;3.70;2.45;;;32.70;47.60;;;;;;11008436;32;20041;-71
2022/08/25 15:52:17;;;;;;;2.95;2.00;;;32.70;46.90;;;;;;11024336;32;20084;-72
2022/08/25 15:58:19;;;;;;;3.55;1.75;;;32.70;47.10;;;;;;10990947;32;20026;-71
2022/08/25 16:04:23;;;;;;;5.28;2.62;;;32.80;47.20;;;;;;10977856;32;20033;-71
2022/08/25 16:10:26;;;;;;;3.75;2.50;;;32.90;47.20;;;;;;10994473;32;20034;-71
2022/08/25 16:16:30;;;;;;;3.75;2.55;;;32.90;47.20;;;;;;11012173;32;20022;-71
2022/08/25 16:22:32;;;;;;;4.00;2.42;;;32.90;47.30;;;;;;11015023;32;20425;-71
2022/08/25 16:28:36;;;;;;;3.97;2.28;;;33.00;47.40;;;;;;10984254;32;20022;-71
2022/08/25 16:34:38;;;;;;;2.90;2.08;;;33.00;47.30;;;;;;11002771;32;20022;-71
2022/08/25 16:40:41;;;;;;;3.37;2.00;;;32.90;47.50;;;;;;11022453;32;20064;-71
2022/08/25 16:46:44;;;;;;;3.40;1.95;;;32.90;47.50;;;;;;11022166;32;20026;-72
2022/08/25 16:59:24;;;;;;;4.37;1.92;;;32.90;47.60;;;;;;10984217;32;20041;-71
2022/08/25 17:05:28;;;;;;;5.25;2.87;;;33.00;47.50;;;;;;11018016;32;20053;-71
2022/08/25 17:11:34;;;;;;;2.83;1.87;;;32.80;48.10;;;;;;11020899;32;20018;-71
2022/08/25 17:17:36;;;;;;;2.73;1.73;;;32.60;48.70;;;;;;11020218;32;20056;-71
2022/08/25 17:23:41;;;;;;;3.08;1.85;;;32.30;49.20;;;;;;11020158;32;20391;-71
2022/08/25 17:29:46;;;;;;;3.87;2.10;;;32.10;49.50;;;;;;11017238;32;20326;-71
2022/08/25 17:35:51;;;;;;;5.82;2.22;;;31.80;50.00;;;;;;11017098;32;20326;-71
2022/08/25 17:41:53;;;;;;;3.40;2.22;;;31.60;50.50;;;;;;11005920;32;20045;-71
2022/08/25 17:47:55;;;;;;;2.53;1.90;;;31.40;50.90;;;;;;11016402;32;20018;-71
2022/08/25 17:54:18;;;;;;;3.35;2.03;;;31.30;51.20;;;;;;11019101;32;20420;-71
2022/08/25 18:00:22;;;;;;;3.75;1.83;;;31.10;51.40;;;;;;11018863;32;20065;-71
2022/08/25 18:06:47;;;;;;;4.37;2.12;;;31.00;51.80;;;;;;11018543;32;20018;-71
2022/08/25 18:12:49;;;;;;;4.80;2.33;;;30.80;52.00;;;;;;10972781;32;20420;-71
2022/08/25 18:18:53;;;;;;;4.65;2.40;;;30.80;52.20;;;;;;10980178;32;20045;-71
2022/08/25 18:24:55;;;;;;;4.20;2.35;;;30.60;52.50;;;;;;10979938;32;20018;-71
2022/08/25 18:30:57;;;;;;;2.90;1.62;;;30.40;52.70;;;;;;10979728;32;20019;-71
2022/08/25 18:43:27;;;;;;;3.10;1.73;;;30.30;53.10;;;;;;10863540;32;20038;-71
2022/08/25 18:49:29;;;;;;;3.95;2.03;;;30.20;53.30;;;;;;10862646;32;20027;-71
2022/08/25 18:55:32;;;;;;;2.95;1.58;;;30.10;53.50;;;;;;10863605;32;20074;-71
2022/08/25 19:01:35;;;;;;;3.80;2.20;;;29.90;53.90;;;;;;10863623;32;20402;-71
2022/08/25 19:07:40;;;;;;;2.80;1.73;;;29.80;54.40;;;;;;10863703;32;20042;-71
2022/08/25 19:13:43;;;;;;;5.53;1.80;;;29.70;54.80;;;;;;10863149;32;20038;-71
2022/08/25 19:19:45;;;;;;;1.90;1.30;;;29.70;55.10;;;;;;10941764;32;20050;-71
2022/08/25 19:25:51;;;;;;;4.45;2.05;;;29.60;55.10;;;;;;10979037;32;20045;-71
2022/08/25 19:31:53;;;;;;;2.33;1.58;;;29.60;55.20;;;;;;10975504;32;20022;-71
2022/08/25 19:37:56;;;;;;;4.43;2.80;;;29.50;55.80;;;;;;10978688;32;20034;-71
2022/08/25 19:44:01;;;;;;;3.97;1.95;;;29.30;56.80;;;;;;10978768;32;20014;-71
2022/08/25 19:50:07;;;;;;;4.43;1.65;;;29.20;57.10;;;;;;10978752;32;20019;-71
2022/08/25 19:56:23;;;;;;;20.23;3.55;;;29.20;57.20;;;;;;10984346;32;20387;-71
2022/08/25 20:02:29;;;;;;;7.72;2.97;;;29.20;57.20;;;;;;10983682;32;20018;-71
2022/08/25 20:08:33;;;;;;;7.97;2.10;;;29.10;57.30;;;;;;10984902;32;20077;-71
2022/08/25 20:14:35;;;;;;;9.43;2.97;;;29.00;58.10;;;;;;10984685;32;20382;-71
2022/08/25 20:20:39;;;;;;;4.78;2.37;;;28.90;58.60;;;;;;10984346;32;20438;-71
2022/08/25 20:27:36;;;;;;;5.05;3.03;;;28.80;59.50;;;;;;10984343;32;20019;-71
2022/08/25 20:33:45;;;;;;;7.30;3.05;;;28.70;59.80;;;;;;10937753;32;20045;-71
2022/08/25 20:39:48;;;;;;;6.07;2.95;;;28.60;60.40;;;;;;10928410;32;20049;-71
2022/08/25 20:45:59;;;;;;;3.90;2.25;;;28.60;60.70;;;;;;10932475;32;20023;-71
2022/08/25 20:52:03;;;;;;;3.40;2.30;;;28.60;60.80;;;;;;10945844;32;20059;-71
2022/08/25 20:58:05;;;;;;;5.50;3.40;;;28.60;60.90;;;;;;10931964;32;20429;-71
2022/08/25 21:04:10;;;;;;;5.18;2.80;;;28.60;60.80;;;;;;10945029;32;20026;-71
2022/08/25 21:10:21;;;;;;;5.03;2.80;;;28.60;60.70;;;;;;10945069;32;20279;-71
2022/08/25 21:16:24;;;;;;;3.08;2.03;;;28.60;60.70;;;;;;10944774;32;20022;-71
2022/08/25 21:22:58;;;;;;;2.80;1.70;;;28.60;60.80;;;;;;10944751;32;20037;-71
2022/08/25 21:29:02;;;;;;;4.62;2.60;;;28.70;60.70;;;;;;10941736;32;20061;-71
2022/08/25 21:35:05;;;;;;;3.60;2.15;;;28.60;60.90;;;;;;10944316;32;20024;-71
2022/08/25 21:41:09;;;;;;;2.55;1.83;;;28.60;60.90;;;;;;10944043;32;20023;-71
2022/08/25 21:47:11;;;;;;;4.03;2.35;;;28.60;61.00;;;;;;10944956;32;20371;-71
2022/08/25 21:53:13;;;;;;;2.72;1.40;;;28.50;61.10;;;;;;10943466;32;20398;-71
2022/08/25 21:59:20;;;;;;;3.22;1.50;;;28.50;61.10;;;;;;10943298;32;20053;-71
2022/08/25 22:05:22;;;;;;;2.27;1.17;;;28.60;61.00;;;;;;10943131;32;20336;-71
2022/08/25 22:11:25;;;;;;;3.33;2.10;;;28.60;60.90;;;;;;10943002;32;20023;-71
2022/08/25 22:17:27;;;;;;;3.35;1.27;;;28.60;60.90;;;;;;10942059;32;20042;-71
2022/08/25 22:23:32;;;;;;;2.42;1.08;;;28.50;61.00;;;;;;10942639;32;20015;-71
2022/08/25 22:29:34;;;;;;;4.35;1.75;;;28.50;61.00;;;;;;10942371;32;20058;-71
2022/08/25 22:35:36;;;;;;;4.32;1.62;;;28.50;61.00;;;;;;10942963;32;20046;-71
2022/08/25 22:41:38;;;;;;;3.05;1.77;;;28.40;61.30;;;;;;10939286;32;20313;-71
2022/08/25 22:47:40;;;;;;;2.20;1.42;;;28.40;61.40;;;;;;10941926;32;20053;-71
2022/08/25 22:53:44;;;;;;;3.22;1.12;;;28.40;61.40;;;;;;10941904;32;20019;-71
2022/08/25 22:59:46;;;;;;;4.18;1.73;;;28.30;61.40;;;;;;10941667;32;20046;-71
2022/08/25 23:05:48;;;;;;;1.95;1.40;;;28.30;61.60;;;;;;10939741;32;20019;-71
2022/08/25 23:11:50;;;;;;;3.60;1.90;;;28.30;62.10;;;;;;10941659;32;20022;-71
2022/08/25 23:17:53;;;;;;;3.25;1.70;;;28.20;62.30;;;;;;10941302;32;20031;-71
2022/08/25 23:23:57;;;;;;;3.55;1.95;;;28.20;62.20;;;;;;10941418;32;20050;-71
2022/08/25 23:29:59;;;;;;;1.58;1.17;;;28.10;62.20;;;;;;10948636;32;20034;-71
2022/08/25 23:36:05;;;;;;;2.12;1.45;;;28.00;62.30;;;;;;10948349;32;20022;-71
2022/08/25 23:42:07;;;;;;;3.17;0.82;;;28.00;62.40;;;;;;10948109;32;20027;-71
2022/08/25 23:48:10;;;;;;;2.83;1.48;;;28.00;62.50;;;;;;10943759;32;20023;-71
2022/08/25 23:54:12;;;;;;;2.95;1.80;;;27.90;62.50;;;;;;10947761;32;20027;-71
